createdAt,value
2019-03-05T00:01:58.317Z,6.77
2019-03-05T00:04:27.132Z,6.79
2019-03-05T00:06:55.834Z,6.86
2019-03-05T00:09:24.558Z,6.87
2019-03-05T00:11:53.237Z,6.88
2019-03-05T00:14:23.065Z,6.85
2019-03-05T00:16:51.761Z,6.90
2019-03-05T00:19:20.375Z,6.89
2019-03-05T00:21:49.105Z,6.91
2019-03-05T00:24:53.763Z,6.89
2019-03-05T00:27:22.414Z,6.92
2019-03-05T00:30:09.094Z,6.96
2019-03-05T00:32:37.799Z,6.99
2019-03-05T00:35:09.324Z,7.02
2019-03-05T00:37:40.949Z,7.02
2019-03-05T00:40:28.928Z,7.01
2019-03-05T00:43:03.475Z,6.99
2019-03-05T00:45:53.174Z,6.94
2019-03-05T00:48:27.591Z,6.95
2019-03-05T00:50:59.195Z,7.03
2019-03-05T00:53:33.832Z,7.01
2019-03-05T00:56:05.619Z,7.06
2019-03-05T00:58:42.807Z,7.05
2019-03-05T01:01:29.707Z,7.02
2019-03-05T01:04:28.334Z,6.99
2019-03-05T01:06:57.096Z,7.03
2019-03-05T01:09:26.218Z,7.04
2019-03-05T01:11:54.910Z,7.01
2019-03-05T01:14:25.203Z,6.99
2019-03-05T01:16:53.888Z,6.99
2019-03-05T01:19:22.608Z,6.98
2019-03-05T01:21:51.332Z,7.07
2019-03-05T01:24:20.281Z,7.10
2019-03-05T01:26:50.014Z,7.12
2019-03-05T01:29:18.629Z,7.11
2019-03-05T01:31:51.755Z,6.90
2019-03-05T01:34:31.097Z,7.11
2019-03-05T01:37:01.406Z,7.09
2019-03-05T01:39:43.658Z,7.07
2019-03-05T01:42:12.320Z,7.04
2019-03-05T01:44:41.010Z,6.99
2019-03-05T01:47:09.725Z,6.97
2019-03-05T01:49:38.426Z,6.97
2019-03-05T01:52:07.053Z,6.94
2019-03-05T01:54:35.776Z,6.91
2019-03-05T01:57:05.569Z,6.90
2019-03-05T01:59:34.236Z,5.71
2019-03-05T02:02:02.963Z,6.92
2019-03-05T02:04:31.639Z,6.91
2019-03-05T02:07:00.312Z,6.90
2019-03-05T02:09:29.021Z,6.86
2019-03-05T02:11:57.811Z,6.83
2019-03-05T02:14:26.555Z,6.82
2019-03-05T02:16:55.276Z,6.85
2019-03-05T02:19:37.416Z,6.80
2019-03-05T02:22:12.000Z,6.81
2019-03-05T02:25:07.289Z,6.80
2019-03-05T02:27:47.403Z,6.76
2019-03-05T02:30:39.638Z,6.77
2019-03-05T02:33:23.158Z,6.75
2019-03-05T02:36:06.680Z,6.76
2019-03-05T02:38:40.930Z,6.72
2019-03-05T02:41:12.586Z,6.67
2019-03-05T02:44:03.531Z,6.65
2019-03-05T02:46:55.862Z,6.68
2019-03-05T02:49:42.631Z,6.60
2019-03-05T02:52:42.853Z,6.52
2019-03-05T02:55:17.049Z,6.50
2019-03-05T02:57:44.557Z,6.35
2019-03-05T03:00:15.079Z,6.32
2019-03-05T03:02:48.340Z,6.30
2019-03-05T03:05:18.834Z,6.28
2019-03-05T03:07:47.662Z,6.25
2019-03-05T03:10:21.613Z,6.21
2019-03-05T03:12:50.322Z,6.22
2019-03-05T03:15:19.238Z,6.25
2019-03-05T03:17:48.027Z,6.25
2019-03-05T03:20:17.456Z,6.25
2019-03-05T03:22:46.130Z,6.29
2019-03-05T03:25:17.555Z,6.20
2019-03-05T03:27:46.409Z,6.20
2019-03-05T03:30:20.804Z,6.22
2019-03-05T03:32:49.414Z,6.20
2019-03-05T03:35:18.173Z,6.18
2019-03-05T03:37:46.947Z,6.12
2019-03-05T03:40:18.825Z,6.13
2019-03-05T03:42:47.634Z,6.12
2019-03-05T03:45:18.871Z,6.11
2019-03-05T03:47:47.642Z,6.08
2019-03-05T03:50:16.327Z,6.12
2019-03-05T03:52:45.074Z,6.13
2019-03-05T03:55:16.199Z,6.08
2019-03-05T03:57:44.905Z,6.04
2019-03-05T04:00:19.016Z,6.03
2019-03-05T04:02:47.661Z,6.03
2019-03-05T04:05:16.335Z,6.02
2019-03-05T04:07:45.027Z,6.07
2019-03-05T04:10:17.049Z,6.13
2019-03-05T04:12:45.750Z,6.14
2019-03-05T04:15:16.950Z,6.17
2019-03-05T04:17:45.728Z,6.14
2019-03-05T04:20:18.498Z,6.19
2019-03-05T04:22:47.061Z,6.23
2019-03-05T04:25:15.706Z,6.23
2019-03-05T04:27:44.354Z,6.15
2019-03-05T04:30:16.812Z,6.21
2019-03-05T04:32:45.388Z,6.23
2019-03-05T04:35:14.211Z,6.22
2019-03-05T04:37:42.903Z,6.26
2019-03-05T04:40:12.997Z,6.28
2019-03-05T04:42:41.631Z,5.97
2019-03-05T04:45:49.238Z,5.50
2019-03-05T04:48:17.858Z,5.07
2019-03-05T04:50:48.160Z,4.66
2019-03-05T04:53:16.855Z,4.57
2019-03-05T04:55:45.464Z,4.38
2019-03-05T04:58:14.141Z,4.08
2019-03-05T05:00:42.852Z,4.07
2019-03-05T05:03:11.532Z,3.85
2019-03-05T05:05:40.211Z,3.79
2019-03-05T05:08:08.846Z,3.87
2019-03-05T05:10:37.556Z,3.92
2019-03-05T05:13:06.285Z,3.96
2019-03-05T05:15:35.625Z,4.02
2019-03-05T05:18:05.298Z,4.19
2019-03-05T05:20:34.046Z,3.74
2019-03-05T05:23:02.612Z,4.45
2019-03-05T05:25:31.295Z,4.56
2019-03-05T05:27:59.964Z,4.52
2019-03-05T05:30:39.871Z,4.54
2019-03-05T05:33:09.374Z,4.46
2019-03-05T05:35:38.114Z,4.45
2019-03-05T05:38:06.797Z,4.49
2019-03-05T05:40:47.121Z,4.55
2019-03-05T05:43:19.823Z,4.56
2019-03-05T05:45:51.354Z,4.59
2019-03-05T05:48:20.192Z,4.70
2019-03-05T05:50:49.026Z,4.78
2019-03-05T05:53:18.303Z,4.73
2019-03-05T05:55:47.003Z,4.75
2019-03-05T05:58:16.513Z,4.72
2019-03-05T06:00:52.906Z,4.69
2019-03-05T06:03:22.681Z,4.70
2019-03-05T06:05:51.766Z,4.71
2019-03-05T06:08:21.388Z,4.64
2019-03-05T06:10:52.777Z,4.12
2019-03-05T06:13:20.596Z,4.59
2019-03-05T06:15:49.345Z,4.54
2019-03-05T06:18:17.922Z,4.47
2019-03-05T06:20:46.725Z,4.43
2019-03-05T06:23:15.559Z,4.41
2019-03-05T06:25:44.207Z,4.33
2019-03-05T06:28:12.883Z,4.35
2019-03-05T06:30:44.807Z,4.30
2019-03-05T06:33:13.639Z,4.30
2019-03-05T06:35:42.356Z,4.33
2019-03-05T06:38:11.052Z,4.38
2019-03-05T06:40:39.787Z,4.34
2019-03-05T06:43:08.454Z,4.37
2019-03-05T06:45:37.225Z,4.46
2019-03-05T06:48:05.923Z,4.44
2019-03-05T06:50:34.717Z,4.43
2019-03-05T06:53:03.462Z,4.40
2019-03-05T06:55:32.240Z,4.40
2019-03-05T06:58:00.876Z,4.47
2019-03-05T07:00:35.204Z,4.44
2019-03-05T07:03:06.193Z,4.50
2019-03-05T07:06:11.089Z,4.55
2019-03-05T07:08:42.679Z,4.73
2019-03-05T07:11:33.772Z,4.63
2019-03-05T07:14:11.262Z,5.05
2019-03-05T07:16:54.739Z,5.12
2019-03-05T07:19:26.259Z,5.36
2019-03-05T07:22:00.734Z,5.65
2019-03-05T07:24:48.811Z,5.92
2019-03-05T07:28:46.395Z,6.15
2019-03-05T07:31:15.106Z,6.08
2019-03-05T07:33:43.872Z,5.76
2019-03-05T07:36:12.672Z,6.11
2019-03-05T07:38:41.412Z,6.16
2019-03-05T07:41:10.156Z,6.35
2019-03-05T07:43:38.952Z,6.48
2019-03-05T07:46:07.688Z,6.20
2019-03-05T07:48:36.344Z,5.88
2019-03-05T07:51:05.242Z,5.90
2019-03-05T07:53:34.098Z,5.75
2019-03-05T07:56:02.845Z,5.70
2019-03-05T07:58:31.509Z,5.59
2019-03-05T08:01:00.248Z,5.47
2019-03-05T08:03:28.962Z,5.50
2019-03-05T08:05:57.831Z,5.43
2019-03-05T08:09:02.673Z,5.45
2019-03-05T08:11:31.927Z,5.88
2019-03-05T08:14:03.937Z,6.16
2019-03-05T08:16:32.695Z,6.10
2019-03-05T08:19:01.614Z,6.27
2019-03-05T08:21:30.347Z,6.18
2019-03-05T08:23:59.047Z,6.26
2019-03-05T08:26:27.783Z,6.25
2019-03-05T08:28:56.754Z,6.80
2019-03-05T08:31:25.437Z,6.84
2019-03-05T08:33:54.170Z,6.79
2019-03-05T08:36:23.016Z,7.29
2019-03-05T08:38:51.664Z,7.83
2019-03-05T08:41:20.401Z,6.90
2019-03-05T08:43:49.058Z,6.55
2019-03-05T08:46:17.756Z,5.85
2019-03-05T08:48:46.517Z,6.44
2019-03-05T08:51:15.200Z,6.40
2019-03-05T08:53:49.503Z,6.53
2019-03-05T08:56:14.419Z,6.63
2019-03-05T08:58:43.131Z,6.63
2019-03-05T09:01:11.883Z,6.58
2019-03-05T09:03:40.581Z,6.78
2019-03-05T09:06:09.409Z,6.87
2019-03-05T09:08:38.606Z,6.90
2019-03-05T09:11:08.319Z,7.13
2019-03-05T09:13:36.980Z,7.41
2019-03-05T09:16:05.811Z,7.39
2019-03-05T09:18:34.477Z,7.75
2019-03-05T09:21:03.231Z,7.29
2019-03-05T09:23:31.874Z,7.29
2019-03-05T09:26:00.591Z,7.14
2019-03-05T09:28:29.324Z,6.95
2019-03-05T09:30:58.173Z,6.97
2019-03-05T09:33:26.854Z,7.04
2019-03-05T09:35:55.574Z,7.18
2019-03-05T09:38:24.953Z,7.11
2019-03-05T09:40:53.610Z,7.19
2019-03-05T09:43:22.353Z,6.98
2019-03-05T09:45:51.045Z,6.94
2019-03-05T09:48:19.882Z,6.93
2019-03-05T09:50:48.532Z,6.96
2019-03-05T09:53:17.157Z,7.08
2019-03-05T09:55:45.833Z,7.27
2019-03-05T09:58:14.540Z,7.28
2019-03-05T10:00:43.280Z,7.19
2019-03-05T10:03:12.035Z,7.17
2019-03-05T10:05:40.762Z,7.27
2019-03-05T10:08:10.530Z,7.40
2019-03-05T10:10:39.163Z,7.39
2019-03-05T10:13:08.140Z,7.46
2019-03-05T10:15:36.871Z,7.57
2019-03-05T10:18:12.612Z,7.66
2019-03-05T10:20:36.955Z,7.63
2019-03-05T10:23:06.307Z,7.50
2019-03-05T10:25:35.041Z,7.44
2019-03-05T10:28:03.785Z,7.50
2019-03-05T10:30:38.063Z,8.17
2019-03-05T10:33:08.363Z,8.27
2019-03-05T10:35:37.227Z,8.08
2019-03-05T10:38:07.682Z,7.94
2019-03-05T10:40:47.458Z,8.25
2019-03-05T10:43:19.151Z,9.20
2019-03-05T10:45:49.471Z,9.64
2019-03-05T10:48:23.158Z,9.55
2019-03-05T10:50:52.421Z,9.24
2019-03-05T10:53:22.010Z,7.85
2019-03-05T10:55:50.671Z,9.19
2019-03-05T10:58:19.484Z,9.35
2019-03-05T11:00:53.916Z,9.52
2019-03-05T11:03:25.212Z,9.38
2019-03-05T11:05:54.246Z,9.82
2019-03-05T11:08:25.245Z,10.22
2019-03-05T11:10:54.870Z,10.42
2019-03-05T11:13:23.715Z,10.68
2019-03-05T11:15:58.199Z,10.93
2019-03-05T11:18:29.647Z,10.96
2019-03-05T11:20:57.404Z,10.96
2019-03-05T11:23:26.100Z,10.40
2019-03-05T11:25:54.863Z,10.16
2019-03-05T11:28:23.596Z,9.83
2019-03-05T11:30:52.486Z,10.10
2019-03-05T11:33:22.210Z,9.99
2019-03-05T11:35:51.826Z,10.48
2019-03-05T11:38:20.870Z,10.83
2019-03-05T11:40:49.474Z,11.28
2019-03-05T11:43:18.630Z,11.79
2019-03-05T11:45:47.332Z,11.71
2019-03-05T11:48:17.043Z,11.42
2019-03-05T11:50:45.999Z,10.88
2019-03-05T11:53:14.850Z,10.79
2019-03-05T11:55:43.508Z,11.16
2019-03-05T11:58:12.302Z,11.23
2019-03-05T12:00:52.082Z,11.37
2019-03-05T12:03:20.948Z,11.51
2019-03-05T12:05:56.905Z,11.53
2019-03-05T12:08:25.798Z,11.39
2019-03-05T12:10:54.481Z,11.48
2019-03-05T12:13:23.112Z,11.12
2019-03-05T12:15:51.841Z,10.70
2019-03-05T12:18:20.495Z,10.34
2019-03-05T12:20:49.177Z,10.06
2019-03-05T12:23:17.885Z,10.27
2019-03-05T12:25:46.581Z,10.39
2019-03-05T12:28:15.990Z,10.34
2019-03-05T12:30:53.883Z,10.35
2019-03-05T12:33:22.733Z,10.27
2019-03-05T12:35:51.694Z,9.94
2019-03-05T12:38:20.356Z,9.71
2019-03-05T12:40:49.087Z,9.48
2019-03-05T12:43:17.818Z,9.48
2019-03-05T12:45:47.425Z,9.69
2019-03-05T12:48:16.122Z,9.69
2019-03-05T12:50:44.831Z,10.78
2019-03-05T12:53:15.953Z,11.14
2019-03-05T12:55:44.158Z,10.76
2019-03-05T12:58:12.997Z,10.86
2019-03-05T13:00:41.731Z,10.86
2019-03-05T13:03:10.590Z,10.47
2019-03-05T13:05:39.331Z,10.42
2019-03-05T13:08:08.065Z,10.54
2019-03-05T13:10:37.670Z,10.99
2019-03-05T13:13:06.723Z,11.13
2019-03-05T13:15:38.133Z,11.06
2019-03-05T13:18:06.881Z,10.89
2019-03-05T13:20:35.663Z,10.58
2019-03-05T13:23:09.526Z,10.36
2019-03-05T13:25:38.175Z,10.31
2019-03-05T13:28:06.484Z,10.52
2019-03-05T13:30:35.354Z,9.93
2019-03-05T13:33:05.110Z,10.48
2019-03-05T13:35:33.858Z,10.24
2019-03-05T13:38:07.657Z,10.02
2019-03-05T13:40:38.527Z,10.17
2019-03-05T13:43:07.220Z,10.75
2019-03-05T13:45:36.166Z,11.35
2019-03-05T13:48:19.512Z,11.51
2019-03-05T13:51:11.723Z,10.72
2019-03-05T13:54:09.315Z,10.36
2019-03-05T13:56:42.382Z,10.13
2019-03-05T13:59:21.235Z,10.03
2019-03-05T14:01:49.928Z,9.91
2019-03-05T14:04:39.531Z,9.90
2019-03-05T14:07:11.841Z,9.92
2019-03-05T14:09:39.360Z,10.24
2019-03-05T14:12:08.004Z,10.71
2019-03-05T14:14:36.711Z,11.14
2019-03-05T14:17:10.317Z,10.51
2019-03-05T14:19:39.139Z,10.29
2019-03-05T14:22:07.915Z,11.00
2019-03-05T14:24:36.560Z,11.00
2019-03-05T14:27:05.469Z,10.67
2019-03-05T14:29:34.190Z,10.45
2019-03-05T14:32:02.954Z,10.30
2019-03-05T14:34:31.754Z,10.33
2019-03-05T14:37:00.527Z,10.90
2019-03-05T14:39:32.717Z,11.34
2019-03-05T14:42:02.634Z,11.69
2019-03-05T14:44:39.859Z,11.65
2019-03-05T14:47:04.623Z,11.42
2019-03-05T14:49:33.435Z,11.29
2019-03-05T14:52:02.080Z,11.22
2019-03-05T14:54:30.795Z,10.97
2019-03-05T14:56:59.552Z,11.12
2019-03-05T14:59:28.381Z,10.71
2019-03-05T15:01:57.169Z,10.53
2019-03-05T15:04:26.085Z,10.55
2019-03-05T15:06:55.024Z,10.54
2019-03-05T15:09:23.819Z,10.50
2019-03-05T15:11:52.492Z,10.39
2019-03-05T15:14:21.208Z,10.58
2019-03-05T15:16:49.919Z,11.04
2019-03-05T15:19:21.741Z,11.50
2019-03-05T15:21:49.161Z,11.39
2019-03-05T15:24:17.927Z,11.41
2019-03-05T15:26:46.690Z,11.56
2019-03-05T15:29:15.492Z,11.39
2019-03-05T15:31:44.228Z,11.08
2019-03-05T15:34:12.946Z,10.88
2019-03-05T15:36:41.791Z,10.83
2019-03-05T15:39:10.721Z,10.96
2019-03-05T15:41:39.532Z,10.82
2019-03-05T15:44:10.504Z,10.82
2019-03-05T15:46:39.388Z,10.57
2019-03-05T15:49:08.196Z,10.61
2019-03-05T15:51:37.121Z,10.80
2019-03-05T15:54:05.914Z,9.97
2019-03-05T15:56:34.651Z,11.04
2019-03-05T15:59:03.467Z,11.15
2019-03-05T16:01:32.609Z,10.85
2019-03-05T16:04:01.385Z,10.24
2019-03-05T16:06:33.736Z,10.24
2019-03-05T16:09:02.246Z,10.10
2019-03-05T16:11:34.082Z,9.99
2019-03-05T16:14:01.457Z,9.96
2019-03-05T16:16:30.319Z,10.16
2019-03-05T16:18:59.109Z,10.28
2019-03-05T16:21:27.873Z,10.37
2019-03-05T16:23:56.701Z,10.37
2019-03-05T16:26:25.506Z,10.43
2019-03-05T16:28:54.456Z,10.27
2019-03-05T16:31:24.836Z,10.22
2019-03-05T16:34:13.144Z,10.08
2019-03-05T16:36:42.296Z,10.01
2019-03-05T16:39:16.612Z,9.98
2019-03-05T16:41:46.937Z,9.87
2019-03-05T16:44:36.075Z,9.72
2019-03-05T16:47:22.977Z,9.64
2019-03-05T16:49:53.300Z,9.49
2019-03-05T16:52:39.641Z,9.34
2019-03-05T16:55:28.491Z,9.36
2019-03-05T16:58:01.762Z,9.17
2019-03-05T17:00:48.771Z,9.01
2019-03-05T17:03:19.139Z,8.91
2019-03-05T17:06:05.796Z,8.85
2019-03-05T17:08:39.155Z,8.80
2019-03-05T17:11:19.304Z,8.65
2019-03-05T17:13:51.449Z,8.60
2019-03-05T17:16:29.891Z,8.57
2019-03-05T17:18:58.899Z,8.51
2019-03-05T17:21:28.119Z,8.52
2019-03-05T17:23:58.896Z,8.37
2019-03-05T17:26:28.537Z,8.35
2019-03-05T17:28:59.177Z,8.24
2019-03-05T17:31:28.515Z,8.17
2019-03-05T17:33:58.084Z,8.02
2019-03-05T17:36:26.853Z,7.98
2019-03-05T17:38:58.603Z,7.84
2019-03-05T17:41:28.284Z,7.77
2019-03-05T17:43:59.863Z,7.70
2019-03-05T17:46:35.939Z,7.67
2019-03-05T17:49:08.179Z,7.62
2019-03-05T17:51:40.652Z,6.95
2019-03-05T17:54:11.696Z,7.45
2019-03-05T17:56:43.051Z,7.44
2019-03-05T17:59:12.709Z,7.42
2019-03-05T18:01:43.250Z,7.29
2019-03-05T18:04:15.544Z,7.23
2019-03-05T18:06:49.531Z,7.36
2019-03-05T18:09:18.675Z,7.27
2019-03-05T18:11:47.394Z,7.19
2019-03-05T18:14:16.131Z,7.14
2019-03-05T18:16:45.005Z,7.10
2019-03-05T18:19:13.665Z,7.15
2019-03-05T18:21:42.560Z,7.03
2019-03-05T18:24:11.287Z,7.03
2019-03-05T18:26:44.246Z,6.10
2019-03-05T18:29:13.109Z,6.85
2019-03-05T18:31:41.889Z,6.84
2019-03-05T18:34:10.601Z,6.83
2019-03-05T18:36:39.362Z,6.89
2019-03-05T18:39:09.123Z,6.85
2019-03-05T18:41:37.798Z,6.79
2019-03-05T18:44:06.471Z,6.73
2019-03-05T18:46:35.365Z,6.76
2019-03-05T18:49:04.925Z,6.67
2019-03-05T18:51:33.572Z,6.64
2019-03-05T18:54:02.195Z,6.64
2019-03-05T18:56:31.004Z,6.67
2019-03-05T18:58:59.673Z,6.57
2019-03-05T19:01:28.475Z,6.55
2019-03-05T19:03:57.131Z,6.45
2019-03-05T19:06:25.896Z,6.50
2019-03-05T19:08:54.719Z,6.49
2019-03-05T19:11:23.625Z,6.40
2019-03-05T19:13:52.277Z,6.48
2019-03-05T19:16:21.063Z,6.47
2019-03-05T19:18:49.620Z,6.39
2019-03-05T19:21:18.533Z,6.34
2019-03-05T19:23:47.239Z,6.28
2019-03-05T19:26:16.009Z,6.32
2019-03-05T19:28:44.840Z,6.35
2019-03-05T19:31:13.764Z,6.24
2019-03-05T19:33:43.779Z,6.38
2019-03-05T19:36:12.725Z,6.33
2019-03-05T19:38:41.478Z,6.29
2019-03-05T19:41:10.392Z,6.28
2019-03-05T19:43:39.459Z,6.00
2019-03-05T19:46:08.531Z,5.81
2019-03-05T19:48:37.536Z,5.58
2019-03-05T19:51:06.570Z,5.41
2019-03-05T19:53:35.577Z,5.33
2019-03-05T19:56:05.500Z,5.33
2019-03-05T19:58:34.391Z,5.10
2019-03-05T20:01:04.820Z,5.24
2019-03-05T20:03:34.036Z,5.09
2019-03-05T20:06:03.140Z,4.94
2019-03-05T20:08:39.479Z,4.87
2019-03-05T20:11:02.880Z,4.80
2019-03-05T20:13:52.837Z,4.72
2019-03-05T20:16:22.231Z,4.79
2019-03-05T20:18:51.492Z,4.79
2019-03-05T20:21:20.458Z,4.67
2019-03-05T20:23:49.438Z,3.68
2019-03-05T20:26:18.459Z,4.53
2019-03-05T20:28:47.342Z,4.42
2019-03-05T20:31:16.643Z,4.26
2019-03-05T20:33:45.499Z,4.12
2019-03-05T20:36:14.406Z,4.15
2019-03-05T20:38:44.400Z,4.11
2019-03-05T20:41:14.033Z,4.19
2019-03-05T20:43:43.954Z,4.13
2019-03-05T20:46:15.577Z,4.16
2019-03-05T20:48:48.224Z,4.14
2019-03-05T20:51:16.927Z,4.14
2019-03-05T20:53:45.760Z,4.13
2019-03-05T20:56:14.708Z,4.05
2019-03-05T20:58:43.391Z,3.97
2019-03-05T21:01:12.211Z,3.87
2019-03-05T21:03:41.008Z,3.80
2019-03-05T21:06:09.805Z,3.92
2019-03-05T21:08:38.722Z,3.87
2019-03-05T21:11:07.482Z,3.45
2019-03-05T21:13:36.238Z,3.89
2019-03-05T21:16:05.657Z,3.95
2019-03-05T21:18:34.462Z,3.87
2019-03-05T21:21:03.505Z,4.00
2019-03-05T21:23:32.571Z,3.97
2019-03-05T21:26:01.689Z,4.05
2019-03-05T21:28:31.024Z,4.01
2019-03-05T21:31:00.571Z,4.02
2019-03-05T21:33:29.350Z,4.05
2019-03-05T21:35:57.999Z,3.98
2019-03-05T21:38:26.688Z,3.82
2019-03-05T21:40:55.461Z,3.69
2019-03-05T21:43:24.148Z,3.60
2019-03-05T21:45:56.084Z,3.63
2019-03-05T21:48:24.835Z,3.66
2019-03-05T21:50:53.538Z,3.72
2019-03-05T21:53:22.285Z,3.71
2019-03-05T21:55:50.948Z,3.77
2019-03-05T21:58:20.503Z,3.72
2019-03-05T22:00:49.149Z,3.34
2019-03-05T22:03:17.883Z,3.74
2019-03-05T22:05:46.635Z,3.93
2019-03-05T22:08:15.398Z,3.94
2019-03-05T22:10:44.104Z,3.99
2019-03-05T22:13:12.841Z,4.03
2019-03-05T22:15:42.663Z,4.04
2019-03-05T22:18:11.503Z,4.07
2019-03-05T22:20:40.255Z,4.08
2019-03-05T22:23:08.991Z,4.05
2019-03-05T22:25:37.793Z,4.07
2019-03-05T22:28:06.591Z,4.07
2019-03-05T22:30:37.871Z,4.07
2019-03-05T22:33:06.931Z,4.14
2019-03-05T22:35:35.672Z,4.11
2019-03-05T22:38:05.267Z,4.09
2019-03-05T22:40:34.038Z,3.23
2019-03-05T22:43:02.713Z,4.08
2019-03-05T22:45:35.252Z,4.07
2019-03-05T22:48:04.066Z,4.06
2019-03-05T22:50:32.786Z,4.04
2019-03-05T22:53:01.435Z,4.04
2019-03-05T22:55:30.160Z,4.04
2019-03-05T22:57:58.988Z,4.01
2019-03-05T23:00:44.083Z,4.01
2019-03-05T23:03:18.463Z,3.99
2019-03-05T23:05:49.015Z,4.01
2019-03-05T23:08:18.660Z,4.05
2019-03-05T23:10:48.288Z,4.13
2019-03-05T23:13:19.288Z,4.15
2019-03-05T23:15:48.023Z,4.15
2019-03-05T23:18:16.954Z,4.15
2019-03-05T23:20:45.630Z,4.12
2019-03-05T23:23:14.399Z,4.13
2019-03-05T23:25:43.163Z,4.18
2019-03-05T23:28:11.892Z,4.34
2019-03-05T23:30:41.048Z,4.37
2019-03-05T23:33:09.775Z,4.28
2019-03-05T23:35:38.504Z,4.24
2019-03-05T23:38:07.308Z,4.22
2019-03-05T23:40:36.836Z,4.29
2019-03-05T23:43:06.577Z,4.34
2019-03-05T23:45:35.941Z,4.43
2019-03-05T23:48:05.038Z,4.47
2019-03-05T23:50:33.904Z,4.28
2019-03-05T23:53:02.646Z,4.47
2019-03-05T23:55:31.441Z,4.50
2019-03-05T23:58:00.091Z,4.45
